sensor_id;sensor_type;location;lat;lon;timestamp;P1;durP1;ratioP1;P2;durP2;ratioP2
49582;SDS011;36329;48.816;44.624;2022-12-29T00:02:43;1.7;;;1.6;;
49582;SDS011;36329;48.816;44.624;2022-12-29T00:05:45;1.8;;;1.6;;
49582;SDS011;36329;48.816;44.624;2022-12-29T00:08:46;2.2;;;1.7;;
49582;SDS011;36329;48.816;44.624;2022-12-29T00:11:48;2;;;1.8;;
49582;SDS011;36329;48.816;44.624;2022-12-29T00:14:50;2;;;1.8;;
49582;SDS011;36329;48.816;44.624;2022-12-29T00:17:52;2;;;1.8;;
49582;SDS011;36329;48.816;44.624;2022-12-29T00:20:54;1.8;;;1.7;;
49582;SDS011;36329;48.816;44.624;2022-12-29T00:23:56;2;;;1.8;;
49582;SDS011;36329;48.816;44.624;2022-12-29T00:26:58;1.9;;;1.6;;
49582;SDS011;36329;48.816;44.624;2022-12-29T00:30:12;2.2;;;2;;
49582;SDS011;36329;48.816;44.624;2022-12-29T00:33:19;2.4;;;1.6;;
49582;SDS011;36329;48.816;44.624;2022-12-29T00:36:22;2.2;;;1.9;;
49582;SDS011;36329;48.816;44.624;2022-12-29T00:39:28;2;;;1.8;;
49582;SDS011;36329;48.816;44.624;2022-12-29T00:42:29;2;;;1.8;;
49582;SDS011;36329;48.816;44.624;2022-12-29T00:45:31;3.4;;;1.8;;
49582;SDS011;36329;48.816;44.624;2022-12-29T00:48:33;2.1;;;1.9;;
49582;SDS011;36329;48.816;44.624;2022-12-29T00:51:34;2;;;1.8;;
49582;SDS011;36329;48.816;44.624;2022-12-29T00:54:37;2.9;;;1.9;;
49582;SDS011;36329;48.816;44.624;2022-12-29T00:57:39;1.9;;;1.8;;
49582;SDS011;36329;48.816;44.624;2022-12-29T01:00:41;2.1;;;1.8;;
49582;SDS011;36329;48.816;44.624;2022-12-29T01:03:43;2.7;;;2.1;;
49582;SDS011;36329;48.816;44.624;2022-12-29T01:06:44;2.6;;;1.9;;
49582;SDS011;36329;48.816;44.624;2022-12-29T01:09:46;1.8;;;1.7;;
49582;SDS011;36329;48.816;44.624;2022-12-29T01:12:47;2.5;;;2;;
49582;SDS011;36329;48.816;44.624;2022-12-29T01:15:49;2.3;;;2;;
49582;SDS011;36329;48.816;44.624;2022-12-29T01:18:51;1.9;;;1.7;;
49582;SDS011;36329;48.816;44.624;2022-12-29T01:21:52;1.9;;;1.7;;
49582;SDS011;36329;48.816;44.624;2022-12-29T01:24:54;2;;;1.6;;
49582;SDS011;36329;48.816;44.624;2022-12-29T01:27:56;2;;;1.8;;
49582;SDS011;36329;48.816;44.624;2022-12-29T01:31:00;1.6;;;1.5;;
49582;SDS011;36329;48.816;44.624;2022-12-29T01:34:01;1.8;;;1.5;;
49582;SDS011;36329;48.816;44.624;2022-12-29T01:37:03;1.4;;;1.3;;
49582;SDS011;36329;48.816;44.624;2022-12-29T01:40:05;1.6;;;1.5;;
49582;SDS011;36329;48.816;44.624;2022-12-29T01:43:07;1.9;;;1.7;;
49582;SDS011;36329;48.816;44.624;2022-12-29T01:46:14;2.5;;;1.6;;
49582;SDS011;36329;48.816;44.624;2022-12-29T01:49:21;1.5;;;1.4;;
49582;SDS011;36329;48.816;44.624;2022-12-29T01:52:26;1.9;;;1.4;;
49582;SDS011;36329;48.816;44.624;2022-12-29T01:55:35;1.9;;;1.5;;
49582;SDS011;36329;48.816;44.624;2022-12-29T01:58:43;1.5;;;1.4;;
49582;SDS011;36329;48.816;44.624;2022-12-29T02:01:48;1.5;;;1.4;;
49582;SDS011;36329;48.816;44.624;2022-12-29T02:04:50;1.7;;;1.5;;
49582;SDS011;36329;48.816;44.624;2022-12-29T02:07:54;1.9;;;1.3;;
49582;SDS011;36329;48.816;44.624;2022-12-29T02:10:56;2.4;;;1.3;;
49582;SDS011;36329;48.816;44.624;2022-12-29T02:14:00;1.9;;;1.3;;
49582;SDS011;36329;48.816;44.624;2022-12-29T02:17:04;1.6;;;1.2;;
49582;SDS011;36329;48.816;44.624;2022-12-29T02:20:23;1.6;;;1.2;;
49582;SDS011;36329;48.816;44.624;2022-12-29T02:23:42;1.6;;;1.2;;
49582;SDS011;36329;48.816;44.624;2022-12-29T02:27:12;1.6;;;1.3;;
49582;SDS011;36329;48.816;44.624;2022-12-29T02:30:33;1.1;;;1;;
49582;SDS011;36329;48.816;44.624;2022-12-29T02:33:41;1.5;;;1.2;;
49582;SDS011;36329;48.816;44.624;2022-12-29T02:36:58;2.4;;;1.3;;
49582;SDS011;36329;48.816;44.624;2022-12-29T02:40:06;2.5;;;1.4;;
49582;SDS011;36329;48.816;44.624;2022-12-29T02:43:14;2.5;;;1.6;;
49582;SDS011;36329;48.816;44.624;2022-12-29T02:46:25;2.9;;;1.8;;
49582;SDS011;36329;48.816;44.624;2022-12-29T02:49:33;3.5;;;2;;
49582;SDS011;36329;48.816;44.624;2022-12-29T02:52:40;2.9;;;1.5;;
49582;SDS011;36329;48.816;44.624;2022-12-29T02:55:48;1.7;;;1.3;;
49582;SDS011;36329;48.816;44.624;2022-12-29T02:58:51;2.3;;;1.5;;
49582;SDS011;36329;48.816;44.624;2022-12-29T03:02:03;1.6;;;1.2;;
49582;SDS011;36329;48.816;44.624;2022-12-29T03:05:16;2.6;;;1.1;;
49582;SDS011;36329;48.816;44.624;2022-12-29T03:08:26;1.7;;;0.9;;
49582;SDS011;36329;48.816;44.624;2022-12-29T03:11:33;1.3;;;0.8;;
49582;SDS011;36329;48.816;44.624;2022-12-29T03:14:48;1.5;;;0.8;;
49582;SDS011;36329;48.816;44.624;2022-12-29T03:17:56;2.1;;;0.9;;
49582;SDS011;36329;48.816;44.624;2022-12-29T03:21:05;1.5;;;0.8;;
49582;SDS011;36329;48.816;44.624;2022-12-29T03:24:11;1.1;;;0.7;;
49582;SDS011;36329;48.816;44.624;2022-12-29T03:27:15;1.1;;;0.5;;
49582;SDS011;36329;48.816;44.624;2022-12-29T03:30:20;1.2;;;0.5;;
49582;SDS011;36329;48.816;44.624;2022-12-29T03:33:24;0.7;;;0.5;;
49582;SDS011;36329;48.816;44.624;2022-12-29T03:36:30;1.5;;;0.6;;
49582;SDS011;36329;48.816;44.624;2022-12-29T03:39:43;0.6;;;0.5;;
49582;SDS011;36329;48.816;44.624;2022-12-29T03:42:46;0.6;;;0.4;;
49582;SDS011;36329;48.816;44.624;2022-12-29T03:48:55;1.4;;;0.5;;
49582;SDS011;36329;48.816;44.624;2022-12-29T03:51:57;1.6;;;0.6;;
49582;SDS011;36329;48.816;44.624;2022-12-29T03:54:58;0.8;;;0.5;;
49582;SDS011;36329;48.816;44.624;2022-12-29T03:58:00;1.7;;;0.6;;
49582;SDS011;36329;48.816;44.624;2022-12-29T04:01:02;1.1;;;0.6;;
49582;SDS011;36329;48.816;44.624;2022-12-29T04:04:04;1.3;;;0.5;;
49582;SDS011;36329;48.816;44.624;2022-12-29T04:07:05;1.6;;;0.7;;
49582;SDS011;36329;48.816;44.624;2022-12-29T04:10:07;1.9;;;0.6;;
49582;SDS011;36329;48.816;44.624;2022-12-29T04:13:09;1.3;;;0.7;;
49582;SDS011;36329;48.816;44.624;2022-12-29T04:16:11;2;;;0.8;;
49582;SDS011;36329;48.816;44.624;2022-12-29T04:19:13;2.7;;;1;;
49582;SDS011;36329;48.816;44.624;2022-12-29T04:22:15;2.2;;;0.9;;
49582;SDS011;36329;48.816;44.624;2022-12-29T04:25:16;2.9;;;0.7;;
49582;SDS011;36329;48.816;44.624;2022-12-29T04:28:18;1.7;;;0.7;;
49582;SDS011;36329;48.816;44.624;2022-12-29T04:31:20;3.4;;;1;;
49582;SDS011;36329;48.816;44.624;2022-12-29T04:34:21;2.2;;;0.9;;
49582;SDS011;36329;48.816;44.624;2022-12-29T04:37:23;1.4;;;0.7;;
49582;SDS011;36329;48.816;44.624;2022-12-29T04:40:25;2.2;;;0.8;;
49582;SDS011;36329;48.816;44.624;2022-12-29T04:43:26;1.6;;;0.9;;
49582;SDS011;36329;48.816;44.624;2022-12-29T04:46:28;2.2;;;0.9;;
49582;SDS011;36329;48.816;44.624;2022-12-29T04:49:30;1.7;;;0.7;;
49582;SDS011;36329;48.816;44.624;2022-12-29T04:52:32;3.6;;;1.4;;
49582;SDS011;36329;48.816;44.624;2022-12-29T04:55:34;2.8;;;1.1;;
49582;SDS011;36329;48.816;44.624;2022-12-29T04:58:36;2.8;;;1;;
49582;SDS011;36329;48.816;44.624;2022-12-29T05:01:38;2.9;;;0.9;;
49582;SDS011;36329;48.816;44.624;2022-12-29T05:04:39;3.4;;;1.3;;
49582;SDS011;36329;48.816;44.624;2022-12-29T05:07:41;2.6;;;1;;
49582;SDS011;36329;48.816;44.624;2022-12-29T05:10:44;2.1;;;1.1;;
49582;SDS011;36329;48.816;44.624;2022-12-29T05:16:53;2.8;;;0.8;;
49582;SDS011;36329;48.816;44.624;2022-12-29T05:19:55;3.1;;;0.9;;
49582;SDS011;36329;48.816;44.624;2022-12-29T05:22:56;1.9;;;0.8;;
49582;SDS011;36329;48.816;44.624;2022-12-29T05:25:58;3.7;;;1;;
49582;SDS011;36329;48.816;44.624;2022-12-29T05:29:00;2.8;;;1.3;;
49582;SDS011;36329;48.816;44.624;2022-12-29T05:32:01;2.5;;;1;;
49582;SDS011;36329;48.816;44.624;2022-12-29T05:35:03;2.2;;;1.1;;
49582;SDS011;36329;48.816;44.624;2022-12-29T05:38:05;2.3;;;1.4;;
49582;SDS011;36329;48.816;44.624;2022-12-29T05:41:07;2.1;;;1.2;;
49582;SDS011;36329;48.816;44.624;2022-12-29T05:44:09;2.5;;;1.2;;
49582;SDS011;36329;48.816;44.624;2022-12-29T05:50:18;4.5;;;1.6;;
49582;SDS011;36329;48.816;44.624;2022-12-29T05:53:19;5;;;1.4;;
49582;SDS011;36329;48.816;44.624;2022-12-29T05:56:21;2.9;;;1.3;;
49582;SDS011;36329;48.816;44.624;2022-12-29T05:59:23;2.4;;;1.3;;
49582;SDS011;36329;48.816;44.624;2022-12-29T06:02:25;3;;;1.5;;
49582;SDS011;36329;48.816;44.624;2022-12-29T06:05:26;5.8;;;1.7;;
49582;SDS011;36329;48.816;44.624;2022-12-29T06:08:29;4.5;;;1.4;;
49582;SDS011;36329;48.816;44.624;2022-12-29T06:11:31;3.4;;;1.6;;
49582;SDS011;36329;48.816;44.624;2022-12-29T06:14:32;2.8;;;1.8;;
49582;SDS011;36329;48.816;44.624;2022-12-29T06:17:34;3.8;;;1.8;;
49582;SDS011;36329;48.816;44.624;2022-12-29T06:20:35;3.7;;;1.3;;
49582;SDS011;36329;48.816;44.624;2022-12-29T06:23:37;2.7;;;1.4;;
49582;SDS011;36329;48.816;44.624;2022-12-29T06:26:39;4.2;;;1.6;;
49582;SDS011;36329;48.816;44.624;2022-12-29T06:29:40;3;;;1.4;;
49582;SDS011;36329;48.816;44.624;2022-12-29T06:32:42;3.3;;;1.4;;
49582;SDS011;36329;48.816;44.624;2022-12-29T06:35:44;4.5;;;1.4;;
49582;SDS011;36329;48.816;44.624;2022-12-29T06:38:46;4.3;;;1.6;;
49582;SDS011;36329;48.816;44.624;2022-12-29T06:41:48;2.8;;;1.4;;
49582;SDS011;36329;48.816;44.624;2022-12-29T06:44:52;4.1;;;1.5;;
49582;SDS011;36329;48.816;44.624;2022-12-29T06:47:54;2.1;;;1.2;;
49582;SDS011;36329;48.816;44.624;2022-12-29T06:50:57;2.4;;;1.1;;
49582;SDS011;36329;48.816;44.624;2022-12-29T06:53:59;2.5;;;1.3;;
49582;SDS011;36329;48.816;44.624;2022-12-29T06:57:01;2.8;;;1.4;;
49582;SDS011;36329;48.816;44.624;2022-12-29T07:00:02;2.4;;;1.3;;
49582;SDS011;36329;48.816;44.624;2022-12-29T07:03:06;3.5;;;1;;
49582;SDS011;36329;48.816;44.624;2022-12-29T07:06:10;1.6;;;0.8;;
49582;SDS011;36329;48.816;44.624;2022-12-29T07:09:12;3.2;;;1;;
49582;SDS011;36329;48.816;44.624;2022-12-29T07:12:14;2;;;1;;
49582;SDS011;36329;48.816;44.624;2022-12-29T07:15:22;2.7;;;1;;
49582;SDS011;36329;48.816;44.624;2022-12-29T07:18:28;2.9;;;1.1;;
49582;SDS011;36329;48.816;44.624;2022-12-29T07:21:35;3.2;;;1.1;;
49582;SDS011;36329;48.816;44.624;2022-12-29T07:24:41;1.9;;;1.2;;
49582;SDS011;36329;48.816;44.624;2022-12-29T07:27:43;4;;;1.4;;
49582;SDS011;36329;48.816;44.624;2022-12-29T07:30:45;3.8;;;1.2;;
49582;SDS011;36329;48.816;44.624;2022-12-29T07:33:47;2.6;;;1.3;;
49582;SDS011;36329;48.816;44.624;2022-12-29T07:36:55;3.3;;;1.2;;
49582;SDS011;36329;48.816;44.624;2022-12-29T07:39:58;2.5;;;1.2;;
49582;SDS011;36329;48.816;44.624;2022-12-29T07:43:01;2;;;1.1;;
49582;SDS011;36329;48.816;44.624;2022-12-29T07:46:03;2.1;;;1.3;;
49582;SDS011;36329;48.816;44.624;2022-12-29T07:49:06;2.5;;;1.1;;
49582;SDS011;36329;48.816;44.624;2022-12-29T07:52:08;2.1;;;1.2;;
49582;SDS011;36329;48.816;44.624;2022-12-29T07:55:09;3.7;;;1.3;;
49582;SDS011;36329;48.816;44.624;2022-12-29T07:58:11;2.4;;;1.2;;
49582;SDS011;36329;48.816;44.624;2022-12-29T08:01:13;1.9;;;1.1;;
49582;SDS011;36329;48.816;44.624;2022-12-29T08:04:15;2.4;;;1.2;;
49582;SDS011;36329;48.816;44.624;2022-12-29T08:07:17;2.9;;;1.6;;
49582;SDS011;36329;48.816;44.624;2022-12-29T08:10:18;4.1;;;1.7;;
49582;SDS011;36329;48.816;44.624;2022-12-29T08:13:20;2.5;;;1.6;;
49582;SDS011;36329;48.816;44.624;2022-12-29T08:16:22;1.7;;;1.3;;
49582;SDS011;36329;48.816;44.624;2022-12-29T08:19:24;2.8;;;1.4;;
49582;SDS011;36329;48.816;44.624;2022-12-29T08:22:25;2.1;;;1.4;;
49582;SDS011;36329;48.816;44.624;2022-12-29T08:25:27;2.8;;;1.2;;
49582;SDS011;36329;48.816;44.624;2022-12-29T08:28:33;2.5;;;1.2;;
49582;SDS011;36329;48.816;44.624;2022-12-29T08:31:35;2.7;;;1.2;;
49582;SDS011;36329;48.816;44.624;2022-12-29T08:34:37;2.6;;;1.5;;
49582;SDS011;36329;48.816;44.624;2022-12-29T08:37:39;3.1;;;1.3;;
49582;SDS011;36329;48.816;44.624;2022-12-29T08:40:41;2.4;;;1.2;;
49582;SDS011;36329;48.816;44.624;2022-12-29T08:43:45;2.2;;;1.4;;
49582;SDS011;36329;48.816;44.624;2022-12-29T08:46:47;3.3;;;1.4;;
49582;SDS011;36329;48.816;44.624;2022-12-29T08:49:49;2;;;1.3;;
49582;SDS011;36329;48.816;44.624;2022-12-29T08:52:50;2.8;;;1.2;;
49582;SDS011;36329;48.816;44.624;2022-12-29T08:55:55;3;;;1.3;;
49582;SDS011;36329;48.816;44.624;2022-12-29T08:59:00;3.3;;;1.6;;
49582;SDS011;36329;48.816;44.624;2022-12-29T09:02:02;3.3;;;1.7;;
49582;SDS011;36329;48.816;44.624;2022-12-29T09:05:04;3.1;;;1.8;;
49582;SDS011;36329;48.816;44.624;2022-12-29T09:08:06;2.9;;;1.5;;
49582;SDS011;36329;48.816;44.624;2022-12-29T09:11:08;2.8;;;1.8;;
49582;SDS011;36329;48.816;44.624;2022-12-29T09:14:12;3.5;;;1.5;;
49582;SDS011;36329;48.816;44.624;2022-12-29T09:17:15;2.3;;;1.2;;
49582;SDS011;36329;48.816;44.624;2022-12-29T09:20:18;2;;;1.2;;
49582;SDS011;36329;48.816;44.624;2022-12-29T09:23:20;2.2;;;1.2;;
49582;SDS011;36329;48.816;44.624;2022-12-29T09:26:22;1.7;;;1;;
49582;SDS011;36329;48.816;44.624;2022-12-29T09:29:23;2.4;;;1.1;;
49582;SDS011;36329;48.816;44.624;2022-12-29T09:32:25;2.8;;;1.3;;
49582;SDS011;36329;48.816;44.624;2022-12-29T09:35:27;2.1;;;1.2;;
49582;SDS011;36329;48.816;44.624;2022-12-29T09:38:29;3.9;;;1.4;;
49582;SDS011;36329;48.816;44.624;2022-12-29T09:41:33;2.3;;;1.1;;
49582;SDS011;36329;48.816;44.624;2022-12-29T09:44:44;3.5;;;1.3;;
49582;SDS011;36329;48.816;44.624;2022-12-29T09:47:53;2.5;;;1.1;;
49582;SDS011;36329;48.816;44.624;2022-12-29T09:50:56;2.7;;;1.2;;
49582;SDS011;36329;48.816;44.624;2022-12-29T09:54:04;1.8;;;1.1;;
49582;SDS011;36329;48.816;44.624;2022-12-29T09:57:21;4;;;1.4;;
49582;SDS011;36329;48.816;44.624;2022-12-29T10:00:28;2.1;;;1.2;;
49582;SDS011;36329;48.816;44.624;2022-12-29T10:03:42;5.9;;;1.1;;
49582;SDS011;36329;48.816;44.624;2022-12-29T10:06:51;3.3;;;1.2;;
49582;SDS011;36329;48.816;44.624;2022-12-29T10:10:01;3.8;;;1.3;;
49582;SDS011;36329;48.816;44.624;2022-12-29T10:13:15;3.6;;;1.1;;
49582;SDS011;36329;48.816;44.624;2022-12-29T10:16:26;3.6;;;1.1;;
49582;SDS011;36329;48.816;44.624;2022-12-29T10:19:43;3.7;;;1.4;;
49582;SDS011;36329;48.816;44.624;2022-12-29T10:22:55;3.1;;;1.2;;
49582;SDS011;36329;48.816;44.624;2022-12-29T10:26:04;3.1;;;1.3;;
49582;SDS011;36329;48.816;44.624;2022-12-29T10:29:15;2.8;;;1.3;;
49582;SDS011;36329;48.816;44.624;2022-12-29T10:32:25;3.3;;;1.6;;
49582;SDS011;36329;48.816;44.624;2022-12-29T10:35:38;2.5;;;1.4;;
49582;SDS011;36329;48.816;44.624;2022-12-29T10:38:43;3.6;;;1.3;;
49582;SDS011;36329;48.816;44.624;2022-12-29T10:41:51;3.9;;;1.4;;
49582;SDS011;36329;48.816;44.624;2022-12-29T10:44:58;4.5;;;1.5;;
49582;SDS011;36329;48.816;44.624;2022-12-29T10:48:01;3;;;1.3;;
49582;SDS011;36329;48.816;44.624;2022-12-29T10:51:08;3.8;;;1.5;;
49582;SDS011;36329;48.816;44.624;2022-12-29T10:54:11;4.2;;;1.5;;
49582;SDS011;36329;48.816;44.624;2022-12-29T10:57:22;3.6;;;1.5;;
49582;SDS011;36329;48.816;44.624;2022-12-29T11:00:30;4;;;1.3;;
49582;SDS011;36329;48.816;44.624;2022-12-29T11:03:39;3.8;;;1.4;;
49582;SDS011;36329;48.816;44.624;2022-12-29T11:06:48;3.1;;;1.5;;
49582;SDS011;36329;48.816;44.624;2022-12-29T11:09:51;4.6;;;1.7;;
49582;SDS011;36329;48.816;44.624;2022-12-29T11:12:55;3.5;;;1.6;;
49582;SDS011;36329;48.816;44.624;2022-12-29T11:15:58;3.1;;;1.3;;
49582;SDS011;36329;48.816;44.624;2022-12-29T11:19:00;2.8;;;1.4;;
49582;SDS011;36329;48.816;44.624;2022-12-29T11:22:12;3.2;;;1.8;;
49582;SDS011;36329;48.816;44.624;2022-12-29T11:25:20;3.3;;;1.5;;
49582;SDS011;36329;48.816;44.624;2022-12-29T11:28:22;4.1;;;1.5;;
49582;SDS011;36329;48.816;44.624;2022-12-29T11:31:24;2.4;;;1.6;;
49582;SDS011;36329;48.816;44.624;2022-12-29T11:34:30;5;;;2.2;;
49582;SDS011;36329;48.816;44.624;2022-12-29T11:37:36;6.5;;;2.6;;
49582;SDS011;36329;48.816;44.624;2022-12-29T11:40:40;4.5;;;1.7;;
49582;SDS011;36329;48.816;44.624;2022-12-29T11:43:44;2.8;;;1.3;;
49582;SDS011;36329;48.816;44.624;2022-12-29T11:46:52;3.2;;;1.7;;
49582;SDS011;36329;48.816;44.624;2022-12-29T11:49:58;4.6;;;1.5;;
49582;SDS011;36329;48.816;44.624;2022-12-29T11:53:03;2.6;;;1.4;;
49582;SDS011;36329;48.816;44.624;2022-12-29T11:56:10;4;;;1.4;;
49582;SDS011;36329;48.816;44.624;2022-12-29T12:02:44;2.8;;;1.4;;
49582;SDS011;36329;48.816;44.624;2022-12-29T12:05:50;2.3;;;1.3;;
49582;SDS011;36329;48.816;44.624;2022-12-29T12:08:57;3.1;;;1.1;;
49582;SDS011;36329;48.816;44.624;2022-12-29T12:12:04;3.6;;;1.6;;
49582;SDS011;36329;48.816;44.624;2022-12-29T12:15:13;5.3;;;1.5;;
49582;SDS011;36329;48.816;44.624;2022-12-29T12:18:26;4.8;;;1.5;;
49582;SDS011;36329;48.816;44.624;2022-12-29T12:21:36;3.6;;;1.4;;
49582;SDS011;36329;48.816;44.624;2022-12-29T12:24:41;3.5;;;1.4;;
49582;SDS011;36329;48.816;44.624;2022-12-29T12:27:50;3.3;;;1.5;;
49582;SDS011;36329;48.816;44.624;2022-12-29T12:30:57;4.7;;;1.6;;
49582;SDS011;36329;48.816;44.624;2022-12-29T12:34:02;5.1;;;1.4;;
49582;SDS011;36329;48.816;44.624;2022-12-29T12:37:15;4.8;;;1.6;;
49582;SDS011;36329;48.816;44.624;2022-12-29T12:40:33;4.4;;;1.4;;
49582;SDS011;36329;48.816;44.624;2022-12-29T12:43:44;5.4;;;1.7;;
49582;SDS011;36329;48.816;44.624;2022-12-29T12:46:58;2.4;;;1.3;;
49582;SDS011;36329;48.816;44.624;2022-12-29T12:50:11;5;;;1.6;;
49582;SDS011;36329;48.816;44.624;2022-12-29T12:53:21;3.4;;;1.5;;
49582;SDS011;36329;48.816;44.624;2022-12-29T12:59:49;3;;;1.5;;
49582;SDS011;36329;48.816;44.624;2022-12-29T13:03:00;4.1;;;1.6;;
49582;SDS011;36329;48.816;44.624;2022-12-29T13:06:13;5.9;;;1.7;;
49582;SDS011;36329;48.816;44.624;2022-12-29T13:09:27;3.4;;;1.7;;
49582;SDS011;36329;48.816;44.624;2022-12-29T13:12:38;3.3;;;1.2;;
49582;SDS011;36329;48.816;44.624;2022-12-29T13:15:50;3.9;;;1.7;;
49582;SDS011;36329;48.816;44.624;2022-12-29T13:18:58;6.7;;;2;;
49582;SDS011;36329;48.816;44.624;2022-12-29T13:22:07;5;;;1.8;;
49582;SDS011;36329;48.816;44.624;2022-12-29T13:25:19;3.8;;;1.3;;
49582;SDS011;36329;48.816;44.624;2022-12-29T13:28:28;3.9;;;1.8;;
49582;SDS011;36329;48.816;44.624;2022-12-29T13:31:38;4.7;;;1.9;;
49582;SDS011;36329;48.816;44.624;2022-12-29T13:34:51;4.2;;;1.7;;
49582;SDS011;36329;48.816;44.624;2022-12-29T13:38:00;3.2;;;1.6;;
49582;SDS011;36329;48.816;44.624;2022-12-29T13:41:06;3.5;;;1.5;;
49582;SDS011;36329;48.816;44.624;2022-12-29T13:44:11;4.6;;;2.1;;
49582;SDS011;36329;48.816;44.624;2022-12-29T13:47:21;5.3;;;2.1;;
49582;SDS011;36329;48.816;44.624;2022-12-29T13:50:29;5.6;;;2;;
49582;SDS011;36329;48.816;44.624;2022-12-29T13:53:40;2.9;;;1.6;;
49582;SDS011;36329;48.816;44.624;2022-12-29T13:56:51;2.8;;;1.8;;
49582;SDS011;36329;48.816;44.624;2022-12-29T13:59:59;4.7;;;2;;
49582;SDS011;36329;48.816;44.624;2022-12-29T14:03:12;4.7;;;2;;
49582;SDS011;36329;48.816;44.624;2022-12-29T14:06:27;4.4;;;2.1;;
49582;SDS011;36329;48.816;44.624;2022-12-29T14:09:39;4;;;2;;
49582;SDS011;36329;48.816;44.624;2022-12-29T14:12:44;4.1;;;2.2;;
49582;SDS011;36329;48.816;44.624;2022-12-29T14:15:46;3.3;;;2.2;;
49582;SDS011;36329;48.816;44.624;2022-12-29T14:18:54;4.7;;;2;;
49582;SDS011;36329;48.816;44.624;2022-12-29T14:21:59;6.5;;;2.2;;
49582;SDS011;36329;48.816;44.624;2022-12-29T14:25:03;4.5;;;1.9;;
49582;SDS011;36329;48.816;44.624;2022-12-29T14:28:15;4.5;;;2.1;;
49582;SDS011;36329;48.816;44.624;2022-12-29T14:34:38;5.2;;;2;;
49582;SDS011;36329;48.816;44.624;2022-12-29T14:37:41;5.9;;;2.5;;
49582;SDS011;36329;48.816;44.624;2022-12-29T14:40:42;6.1;;;2.2;;
49582;SDS011;36329;48.816;44.624;2022-12-29T14:43:54;6.6;;;2.8;;
49582;SDS011;36329;48.816;44.624;2022-12-29T14:47:00;8.7;;;4.4;;
49582;SDS011;36329;48.816;44.624;2022-12-29T14:50:11;8.8;;;4.1;;
49582;SDS011;36329;48.816;44.624;2022-12-29T14:56:43;5.9;;;3;;
49582;SDS011;36329;48.816;44.624;2022-12-29T14:59:45;8.4;;;3.4;;
49582;SDS011;36329;48.816;44.624;2022-12-29T15:02:49;6;;;2.9;;
49582;SDS011;36329;48.816;44.624;2022-12-29T15:05:58;5.1;;;2.6;;
49582;SDS011;36329;48.816;44.624;2022-12-29T15:09:09;4.8;;;2.6;;
49582;SDS011;36329;48.816;44.624;2022-12-29T15:12:20;4.8;;;2.4;;
49582;SDS011;36329;48.816;44.624;2022-12-29T15:15:26;4.6;;;2.6;;
49582;SDS011;36329;48.816;44.624;2022-12-29T15:18:29;4.4;;;2.2;;
49582;SDS011;36329;48.816;44.624;2022-12-29T15:21:33;5.6;;;2.5;;
49582;SDS011;36329;48.816;44.624;2022-12-29T15:24:37;5.3;;;2.3;;
49582;SDS011;36329;48.816;44.624;2022-12-29T15:27:43;5;;;2.5;;
49582;SDS011;36329;48.816;44.624;2022-12-29T15:30:51;8.4;;;2.7;;
49582;SDS011;36329;48.816;44.624;2022-12-29T15:33:54;5.6;;;3;;
49582;SDS011;36329;48.816;44.624;2022-12-29T15:43:29;8.9;;;3;;
49582;SDS011;36329;48.816;44.624;2022-12-29T15:46:39;4.4;;;2.3;;
49582;SDS011;36329;48.816;44.624;2022-12-29T15:49:41;5.6;;;2.3;;
49582;SDS011;36329;48.816;44.624;2022-12-29T15:52:43;7.2;;;2.6;;
49582;SDS011;36329;48.816;44.624;2022-12-29T15:55:45;7.7;;;2.7;;
49582;SDS011;36329;48.816;44.624;2022-12-29T15:58:48;7.1;;;2.5;;
49582;SDS011;36329;48.816;44.624;2022-12-29T16:01:50;5;;;2.3;;
49582;SDS011;36329;48.816;44.624;2022-12-29T16:04:53;5.7;;;2.5;;
49582;SDS011;36329;48.816;44.624;2022-12-29T16:07:55;4.9;;;2.5;;
49582;SDS011;36329;48.816;44.624;2022-12-29T16:10:58;5.1;;;2.6;;
49582;SDS011;36329;48.816;44.624;2022-12-29T16:14:00;8.4;;;3;;
49582;SDS011;36329;48.816;44.624;2022-12-29T16:17:10;6.6;;;3.4;;
49582;SDS011;36329;48.816;44.624;2022-12-29T16:20:20;8.6;;;3;;
49582;SDS011;36329;48.816;44.624;2022-12-29T16:23:26;8;;;3.1;;
49582;SDS011;36329;48.816;44.624;2022-12-29T16:29:36;6.5;;;2.9;;
49582;SDS011;36329;48.816;44.624;2022-12-29T16:32:44;5.9;;;2.8;;
49582;SDS011;36329;48.816;44.624;2022-12-29T16:45:38;5.9;;;2.9;;
49582;SDS011;36329;48.816;44.624;2022-12-29T16:49:08;8.7;;;3.1;;
49582;SDS011;36329;48.816;44.624;2022-12-29T16:52:19;7;;;2.9;;
49582;SDS011;36329;48.816;44.624;2022-12-29T16:55:23;5.2;;;2.9;;
49582;SDS011;36329;48.816;44.624;2022-12-29T16:58:25;7.7;;;3.1;;
49582;SDS011;36329;48.816;44.624;2022-12-29T17:01:29;7.3;;;3.6;;
49582;SDS011;36329;48.816;44.624;2022-12-29T17:04:31;10.2;;;3.4;;
49582;SDS011;36329;48.816;44.624;2022-12-29T17:07:33;8.4;;;3.7;;
49582;SDS011;36329;48.816;44.624;2022-12-29T17:10:34;6.6;;;3.1;;
49582;SDS011;36329;48.816;44.624;2022-12-29T17:13:36;6.8;;;3.2;;
49582;SDS011;36329;48.816;44.624;2022-12-29T17:16:39;4.7;;;2.8;;
49582;SDS011;36329;48.816;44.624;2022-12-29T17:19:41;5.5;;;3.3;;
49582;SDS011;36329;48.816;44.624;2022-12-29T17:22:46;5.3;;;3.2;;
49582;SDS011;36329;48.816;44.624;2022-12-29T17:25:48;6.6;;;3.3;;
49582;SDS011;36329;48.816;44.624;2022-12-29T17:28:50;7.6;;;3.2;;
49582;SDS011;36329;48.816;44.624;2022-12-29T17:31:51;7.5;;;3.1;;
49582;SDS011;36329;48.816;44.624;2022-12-29T17:34:53;7.3;;;2.9;;
49582;SDS011;36329;48.816;44.624;2022-12-29T17:37:55;5.6;;;2.9;;
49582;SDS011;36329;48.816;44.624;2022-12-29T17:40:57;7;;;2.7;;
49582;SDS011;36329;48.816;44.624;2022-12-29T17:43:59;4.9;;;2.7;;
49582;SDS011;36329;48.816;44.624;2022-12-29T17:47:02;7.3;;;3.2;;
49582;SDS011;36329;48.816;44.624;2022-12-29T17:50:05;8;;;3.5;;
49582;SDS011;36329;48.816;44.624;2022-12-29T17:53:13;8.7;;;3.3;;
49582;SDS011;36329;48.816;44.624;2022-12-29T17:56:16;5.4;;;2.9;;
49582;SDS011;36329;48.816;44.624;2022-12-29T17:59:18;8;;;3.1;;
49582;SDS011;36329;48.816;44.624;2022-12-29T18:02:22;8.5;;;3.1;;
49582;SDS011;36329;48.816;44.624;2022-12-29T18:05:27;6.2;;;3.1;;
49582;SDS011;36329;48.816;44.624;2022-12-29T18:08:29;6.2;;;3.3;;
49582;SDS011;36329;48.816;44.624;2022-12-29T18:11:31;5.8;;;3.2;;
49582;SDS011;36329;48.816;44.624;2022-12-29T18:14:32;5.3;;;2.9;;
49582;SDS011;36329;48.816;44.624;2022-12-29T18:17:34;5.4;;;2.7;;
49582;SDS011;36329;48.816;44.624;2022-12-29T18:20:36;6.6;;;3.1;;
49582;SDS011;36329;48.816;44.624;2022-12-29T18:23:41;6.7;;;3.1;;
49582;SDS011;36329;48.816;44.624;2022-12-29T18:26:44;6.6;;;3.2;;
49582;SDS011;36329;48.816;44.624;2022-12-29T18:29:46;6.3;;;3.1;;
49582;SDS011;36329;48.816;44.624;2022-12-29T18:32:48;7.3;;;3.2;;
49582;SDS011;36329;48.816;44.624;2022-12-29T18:35:51;6.2;;;3.2;;
49582;SDS011;36329;48.816;44.624;2022-12-29T18:38:55;6.8;;;3.4;;
49582;SDS011;36329;48.816;44.624;2022-12-29T18:41:57;7;;;3.6;;
49582;SDS011;36329;48.816;44.624;2022-12-29T18:44:59;6.7;;;3.3;;
49582;SDS011;36329;48.816;44.624;2022-12-29T18:48:00;7.4;;;3.6;;
49582;SDS011;36329;48.816;44.624;2022-12-29T18:51:02;8.8;;;3.8;;
49582;SDS011;36329;48.816;44.624;2022-12-29T18:54:05;7.5;;;3.5;;
49582;SDS011;36329;48.816;44.624;2022-12-29T18:57:07;7.2;;;3.2;;
49582;SDS011;36329;48.816;44.624;2022-12-29T19:00:10;7;;;3.5;;
49582;SDS011;36329;48.816;44.624;2022-12-29T19:03:14;8.2;;;3.6;;
49582;SDS011;36329;48.816;44.624;2022-12-29T19:06:17;8.2;;;3.2;;
49582;SDS011;36329;48.816;44.624;2022-12-29T19:09:20;6;;;3.3;;
49582;SDS011;36329;48.816;44.624;2022-12-29T19:12:22;8.7;;;3.7;;
49582;SDS011;36329;48.816;44.624;2022-12-29T19:15:25;6.4;;;2.7;;
49582;SDS011;36329;48.816;44.624;2022-12-29T19:18:28;7.3;;;3.4;;
49582;SDS011;36329;48.816;44.624;2022-12-29T19:21:30;7.1;;;3.4;;
49582;SDS011;36329;48.816;44.624;2022-12-29T19:24:32;5.9;;;3.3;;
49582;SDS011;36329;48.816;44.624;2022-12-29T19:27:33;6.1;;;3.3;;
49582;SDS011;36329;48.816;44.624;2022-12-29T19:30:36;8.3;;;3.6;;
49582;SDS011;36329;48.816;44.624;2022-12-29T19:33:37;6.6;;;3.3;;
49582;SDS011;36329;48.816;44.624;2022-12-29T19:36:39;8.6;;;3.2;;
49582;SDS011;36329;48.816;44.624;2022-12-29T19:39:41;6.2;;;3.5;;
49582;SDS011;36329;48.816;44.624;2022-12-29T19:42:42;7.3;;;4.1;;